Time,TemperatureF,DewpointF,PressureIn,WindDirection,WindDirectionDegrees,WindSpeedMPH,WindSpeedGustMPH,Humidity,HourlyPrecipIn,Conditions,Clouds,dailyrainin,SoftwareType,DateUTC
2013-07-24 00:01:00,55.6,55.0,29.68,WSW,248,5.8,5.8,98,0.00,,,0.00,VWS V14.01,2013-07-24 07:01:00,
2013-07-24 00:06:00,55.6,55.0,29.68,West,270,7.6,7.6,98,0.00,,,0.00,VWS V14.01,2013-07-24 07:06:00,
2013-07-24 00:10:00,55.8,55.2,29.71,WSW,248,3.4,3.4,98,0.00,,,0.00,VWS V14.01,2013-07-24 07:10:00,
2013-07-24 00:15:00,55.8,55.2,29.71,West,270,4.7,4.7,98,0.00,,,0.00,VWS V14.01,2013-07-24 07:15:00,
2013-07-24 00:20:00,55.8,55.2,29.71,SW,225,6.0,6.0,98,0.00,,,0.00,VWS V14.01,2013-07-24 07:20:00,
2013-07-24 00:25:00,55.8,55.2,29.68,WSW,248,3.8,3.8,98,0.00,,,0.00,VWS V14.01,2013-07-24 07:25:00,
2013-07-24 00:30:00,55.8,55.2,29.68,WSW,248,4.9,4.9,98,0.00,,,0.00,VWS V14.01,2013-07-24 07:30:00,
2013-07-24 00:35:00,55.8,55.2,29.68,WNW,292,5.4,5.4,98,0.00,,,0.00,VWS V14.01,2013-07-24 07:35:00,
2013-07-24 00:40:00,55.9,55.4,29.68,West,270,3.4,3.4,98,0.00,,,0.00,VWS V14.01,2013-07-24 07:40:00,
2013-07-24 00:45:00,55.8,55.2,29.68,NNW,338,6.0,6.0,98,0.00,,,0.00,VWS V14.01,2013-07-24 07:45:00,
2013-07-24 00:50:00,55.9,55.4,29.68,WNW,292,4.3,4.3,98,0.00,,,0.00,VWS V14.01,2013-07-24 07:50:00,
2013-07-24 00:55:00,55.6,55.0,29.68,WNW,292,3.4,3.4,98,0.00,,,0.00,VWS V14.01,2013-07-24 07:55:00,
2013-07-24 01:00:00,55.6,55.0,29.68,WSW,248,5.8,5.8,98,0.00,,,0.00,VWS V14.01,2013-07-24 08:00:00,
2013-07-24 01:05:00,55.6,55.0,29.68,WSW,248,8.5,8.5,98,0.00,,,0.00,VWS V14.01,2013-07-24 08:05:00,
2013-07-24 01:10:00,55.6,55.0,29.68,WSW,248,9.6,9.6,98,0.00,,,0.00,VWS V14.01,2013-07-24 08:10:00,
2013-07-24 01:15:00,55.8,55.2,29.68,WSW,248,3.4,3.4,98,0.00,,,0.00,VWS V14.01,2013-07-24 08:15:00,
2013-07-24 01:20:00,55.8,55.2,29.68,WSW,248,7.2,7.2,98,0.00,,,0.00,VWS V14.01,2013-07-24 08:20:00,
2013-07-24 01:25:00,55.8,55.2,29.68,WSW,248,4.3,4.3,98,0.00,,,0.00,VWS V14.01,2013-07-24 08:25:00,
2013-07-24 01:30:00,55.8,55.2,29.68,WNW,292,4.5,4.5,98,0.00,,,0.00,VWS V14.01,2013-07-24 08:30:00,
2013-07-24 01:35:00,55.9,55.4,29.68,West,270,2.5,2.5,98,0.00,,,0.00,VWS V14.01,2013-07-24 08:35:00,
2013-07-24 01:40:00,55.9,55.4,29.68,WSW,248,4.0,4.0,98,0.00,,,0.00,VWS V14.01,2013-07-24 08:40:00,
2013-07-24 01:45:00,55.8,55.2,29.68,West,270,7.6,7.6,98,0.00,,,0.00,VWS V14.01,2013-07-24 08:45:00,
2013-07-24 01:50:00,55.8,55.2,29.68,WSW,248,5.6,5.6,98,0.00,,,0.00,VWS V14.01,2013-07-24 08:50:00,
2013-07-24 01:55:00,55.8,55.2,29.68,WSW,248,5.6,5.6,98,0.00,,,0.00,VWS V14.01,2013-07-24 08:55:00,
2013-07-24 02:00:00,55.8,55.2,29.68,WSW,248,5.6,5.6,98,0.00,,,0.00,VWS V14.01,2013-07-24 09:00:00,
2013-07-24 02:05:00,55.8,55.2,29.68,WNW,292,8.5,8.5,98,0.00,,,0.00,VWS V14.01,2013-07-24 09:05:00,
2013-07-24 02:10:00,55.8,55.2,29.68,West,270,14.8,14.8,98,0.00,,,0.00,VWS V14.01,2013-07-24 09:10:00,
2013-07-24 02:15:00,55.8,55.2,29.68,West,270,7.8,7.8,98,0.00,,,0.00,VWS V14.01,2013-07-24 09:15:00,
2013-07-24 02:20:00,55.8,55.2,29.68,WNW,292,8.1,8.1,98,0.00,,,0.00,VWS V14.01,2013-07-24 09:20:00,
2013-07-24 02:25:00,55.8,55.2,29.68,West,270,11.2,11.2,98,0.00,,,0.00,VWS V14.01,2013-07-24 09:25:00,
2013-07-24 02:30:00,55.6,55.0,29.68,WSW,248,12.1,12.1,98,0.00,,,0.00,VWS V14.01,2013-07-24 09:30:00,
2013-07-24 02:35:00,55.6,55.0,29.68,WSW,248,10.1,10.1,98,0.00,,,0.00,VWS V14.01,2013-07-24 09:35:00,
2013-07-24 02:36:00,55.6,55.0,29.68,WSW,248,10.1,10.1,98,0.00,,,0.00,VWS V14.01,2013-07-24 09:36:00,
2013-07-24 02:41:00,55.4,54.8,29.68,West,270,13.2,13.2,98,0.00,,,0.00,VWS V14.01,2013-07-24 09:41:00,
2013-07-24 02:46:00,55.4,54.8,29.68,WSW,248,10.7,10.7,98,0.00,,,0.00,VWS V14.01,2013-07-24 09:46:00,
2013-07-24 02:51:00,55.4,54.8,29.68,WSW,248,10.7,10.7,98,0.00,,,0.00,VWS V14.01,2013-07-24 09:51:00,
2013-07-24 02:56:00,55.4,54.8,29.68,WSW,248,10.3,10.3,98,0.00,,,0.00,VWS V14.01,2013-07-24 09:56:00,
2013-07-24 03:01:00,55.4,54.8,29.68,WNW,292,9.6,9.6,98,0.00,,,0.00,VWS V14.01,2013-07-24 10:01:00,
2013-07-24 03:06:00,55.4,54.8,29.68,WSW,248,8.7,8.7,98,0.00,,,0.00,VWS V14.01,2013-07-24 10:06:00,
2013-07-24 03:11:00,55.2,54.7,29.68,WSW,248,10.5,10.5,98,0.00,,,0.00,VWS V14.01,2013-07-24 10:11:00,
2013-07-24 03:16:00,55.2,54.7,29.68,WSW,248,8.7,8.7,98,0.00,,,0.00,VWS V14.01,2013-07-24 10:16:00,
2013-07-24 03:21:00,55.0,54.5,29.68,WNW,292,10.5,10.5,98,0.00,,,0.00,VWS V14.01,2013-07-24 10:21:00,
2013-07-24 03:26:00,55.0,54.5,29.68,West,270,8.5,8.5,98,0.00,,,0.00,VWS V14.01,2013-07-24 10:26:00,
2013-07-24 03:31:00,55.2,54.7,29.68,WSW,248,10.1,10.1,98,0.00,,,0.00,VWS V14.01,2013-07-24 10:31:00,
2013-07-24 03:35:00,55.2,54.7,29.68,WSW,248,9.2,9.2,98,0.00,,,0.00,VWS V14.01,2013-07-24 10:35:00,
2013-07-24 03:40:00,55.2,54.7,29.68,SW,225,11.2,11.2,98,0.00,,,0.00,VWS V14.01,2013-07-24 10:40:00,
2013-07-24 03:41:00,55.2,54.7,29.68,SW,225,11.2,11.2,98,0.00,,,0.00,VWS V14.01,2013-07-24 10:41:00,
2013-07-24 03:46:00,55.2,54.7,29.68,SSW,202,8.1,8.1,98,0.00,,,0.00,VWS V14.01,2013-07-24 10:46:00,
2013-07-24 03:51:00,55.2,54.7,29.68,WNW,292,8.7,8.7,98,0.00,,,0.00,VWS V14.01,2013-07-24 10:51:00,
2013-07-24 03:55:00,55.2,54.7,29.68,West,270,11.0,11.0,98,0.00,,,0.00,VWS V14.01,2013-07-24 10:55:00,
2013-07-24 04:00:00,55.2,54.7,29.68,SW,225,7.6,7.6,98,0.00,,,0.00,VWS V14.01,2013-07-24 11:00:00,
2013-07-24 04:05:00,55.2,54.7,29.68,SW,225,10.7,10.7,98,0.00,,,0.00,VWS V14.01,2013-07-24 11:05:00,
2013-07-24 04:10:00,55.2,54.7,29.68,WSW,248,6.5,6.5,98,0.00,,,0.00,VWS V14.01,2013-07-24 11:10:00,
2013-07-24 04:15:00,55.2,54.7,29.68,SW,225,5.6,5.6,98,0.00,,,0.00,VWS V14.01,2013-07-24 11:15:00,
2013-07-24 04:20:00,55.0,54.5,29.68,WSW,248,7.6,7.6,98,0.00,,,0.00,VWS V14.01,2013-07-24 11:20:00,
2013-07-24 04:25:00,55.0,54.5,29.68,West,270,13.2,13.2,98,0.00,,,0.00,VWS V14.01,2013-07-24 11:25:00,
2013-07-24 04:30:00,54.9,54.3,29.68,SW,225,6.3,6.3,98,0.00,,,0.00,VWS V14.01,2013-07-24 11:30:00,
2013-07-24 04:35:00,54.9,54.3,29.68,WSW,248,5.4,5.4,98,0.00,,,0.00,VWS V14.01,2013-07-24 11:35:00,
2013-07-24 04:40:00,54.9,54.3,29.68,WNW,292,12.5,12.5,98,0.00,,,0.00,VWS V14.01,2013-07-24 11:40:00,
2013-07-24 04:45:00,54.7,54.1,29.68,WSW,248,8.7,8.7,98,0.00,,,0.00,VWS V14.01,2013-07-24 11:45:00,
2013-07-24 04:50:00,54.9,54.3,29.68,SW,225,5.8,5.8,98,0.00,,,0.00,VWS V14.01,2013-07-24 11:50:00,
2013-07-24 04:55:00,54.9,54.3,29.68,WSW,248,3.6,3.6,98,0.00,,,0.00,VWS V14.01,2013-07-24 11:55:00,
2013-07-24 05:00:00,55.0,54.5,29.68,West,270,5.6,5.6,98,0.00,,,0.00,VWS V14.01,2013-07-24 12:00:00,
2013-07-24 05:05:00,54.9,54.3,29.68,WSW,248,6.0,6.0,98,0.00,,,0.00,VWS V14.01,2013-07-24 12:05:00,
2013-07-24 05:10:00,54.9,54.3,29.68,SW,225,8.7,8.7,98,0.00,,,0.00,VWS V14.01,2013-07-24 12:10:00,
2013-07-24 05:15:00,54.9,54.3,29.68,West,270,5.8,5.8,98,0.00,,,0.00,VWS V14.01,2013-07-24 12:15:00,
2013-07-24 05:20:00,54.7,54.1,29.68,West,270,11.0,11.0,98,0.00,,,0.00,VWS V14.01,2013-07-24 12:20:00,
2013-07-24 05:25:00,54.7,54.1,29.68,WSW,248,7.4,7.4,98,0.00,,,0.00,VWS V14.01,2013-07-24 12:25:00,
2013-07-24 05:30:00,54.7,54.1,29.68,WSW,248,7.2,7.2,98,0.00,,,0.00,VWS V14.01,2013-07-24 12:30:00,
2013-07-24 05:35:00,54.7,54.1,29.68,WSW,248,9.8,9.8,98,0.00,,,0.00,VWS V14.01,2013-07-24 12:35:00,
2013-07-24 05:40:00,54.7,54.1,29.68,SW,225,7.6,7.6,98,0.00,,,0.00,VWS V14.01,2013-07-24 12:40:00,
2013-07-24 05:45:00,54.5,54.0,29.68,SW,225,7.6,7.6,98,0.00,,,0.00,VWS V14.01,2013-07-24 12:45:00,
2013-07-24 05:50:00,54.5,54.0,29.68,WSW,248,6.5,6.5,98,0.00,,,0.00,VWS V14.01,2013-07-24 12:50:00,
2013-07-24 05:55:00,54.5,54.0,29.68,WSW,248,8.7,8.7,98,0.00,,,0.00,VWS V14.01,2013-07-24 12:55:00,
2013-07-24 06:00:00,54.5,54.0,29.68,WSW,248,8.7,8.7,98,0.00,,,0.00,VWS V14.01,2013-07-24 13:00:00,
2013-07-24 06:05:00,54.5,54.0,29.68,WSW,248,5.6,5.6,98,0.00,,,0.00,VWS V14.01,2013-07-24 13:05:00,
2013-07-24 06:10:00,54.5,54.0,29.68,WSW,248,5.6,5.6,98,0.00,,,0.00,VWS V14.01,2013-07-24 13:10:00,
2013-07-24 06:15:00,54.5,54.0,29.68,WSW,248,5.6,5.6,98,0.00,,,0.00,VWS V14.01,2013-07-24 13:15:00,
2013-07-24 06:20:00,54.5,54.0,29.68,WSW,248,5.6,5.6,98,0.00,,,0.00,VWS V14.01,2013-07-24 13:20:00,
2013-07-24 06:25:00,54.5,54.0,29.68,WSW,248,5.6,5.6,98,0.00,,,0.00,VWS V14.01,2013-07-24 13:25:00,
2013-07-24 06:30:00,54.5,54.0,29.68,WSW,248,5.6,5.6,98,0.00,,,0.00,VWS V14.01,2013-07-24 13:30:00,
2013-07-24 06:35:00,54.5,54.0,29.68,WSW,248,5.6,5.6,98,0.00,,,0.00,VWS V14.01,2013-07-24 13:35:00,
2013-07-24 06:40:00,54.5,54.0,29.71,WSW,248,5.6,5.6,98,0.00,,,0.00,VWS V14.01,2013-07-24 13:40:00,
2013-07-24 06:45:00,54.5,54.0,29.71,West,270,6.7,6.7,98,0.00,,,0.00,VWS V14.01,2013-07-24 13:45:00,
2013-07-24 06:50:00,54.5,54.0,29.71,West,270,6.7,6.7,98,0.00,,,0.00,VWS V14.01,2013-07-24 13:50:00,
2013-07-24 06:55:00,54.5,54.0,29.71,WSW,248,6.3,6.3,98,0.00,,,0.00,VWS V14.01,2013-07-24 13:55:00,
2013-07-24 07:00:00,54.5,54.0,29.71,WSW,248,6.3,6.3,98,0.00,,,0.00,VWS V14.01,2013-07-24 14:00:00,
2013-07-24 07:05:00,54.5,54.0,29.71,WSW,248,6.5,6.5,98,0.00,,,0.00,VWS V14.01,2013-07-24 14:05:00,
2013-07-24 07:10:00,54.5,54.0,29.71,WSW,248,6.5,6.5,98,0.00,,,0.00,VWS V14.01,2013-07-24 14:10:00,
2013-07-24 07:15:00,54.5,54.0,29.71,WSW,248,6.5,6.5,98,0.00,,,0.00,VWS V14.01,2013-07-24 14:15:00,
2013-07-24 07:20:00,54.5,54.0,29.71,NW,315,3.6,3.6,98,0.00,,,0.00,VWS V14.01,2013-07-24 14:20:00,
2013-07-24 07:25:00,54.5,54.0,29.71,NW,315,3.6,3.6,98,0.00,,,0.00,VWS V14.01,2013-07-24 14:25:00,
2013-07-24 07:30:00,54.5,54.0,29.71,NW,315,3.6,3.6,98,0.00,,,0.00,VWS V14.01,2013-07-24 14:30:00,
2013-07-24 07:35:00,54.5,54.0,29.71,NW,315,3.6,3.6,98,0.00,,,0.00,VWS V14.01,2013-07-24 14:35:00,
2013-07-24 07:40:00,54.5,54.0,29.71,NW,315,3.6,3.6,98,0.00,,,0.00,VWS V14.01,2013-07-24 14:40:00,
2013-07-24 07:45:00,54.5,54.0,29.71,WSW,248,7.8,7.8,98,0.00,,,0.00,VWS V14.01,2013-07-24 14:45:00,
2013-07-24 07:50:00,54.5,54.0,29.71,WSW,248,5.4,5.4,98,0.00,,,0.00,VWS V14.01,2013-07-24 14:50:00,
2013-07-24 07:55:00,54.9,54.3,29.71,WSW,248,6.0,6.0,98,0.00,,,0.00,VWS V14.01,2013-07-24 14:55:00,
2013-07-24 08:00:00,54.9,54.3,29.71,SW,225,8.5,8.5,98,0.00,,,0.00,VWS V14.01,2013-07-24 15:00:00,
2013-07-24 08:05:00,54.9,54.3,29.71,WSW,248,8.7,8.7,98,0.00,,,0.00,VWS V14.01,2013-07-24 15:05:00,
2013-07-24 08:10:00,55.2,54.7,29.71,WNW,292,7.2,7.2,98,0.00,,,0.00,VWS V14.01,2013-07-24 15:10:00,
2013-07-24 08:15:00,55.2,54.7,29.71,SW,225,8.5,8.5,98,0.00,,,0.00,VWS V14.01,2013-07-24 15:15:00,
2013-07-24 08:20:00,55.8,55.2,29.71,NW,315,6.0,6.0,98,0.00,,,0.00,VWS V14.01,2013-07-24 15:20:00,
2013-07-24 08:25:00,55.8,55.2,29.71,NW,315,6.0,6.0,98,0.00,,,0.00,VWS V14.01,2013-07-24 15:25:00,
2013-07-24 08:30:00,55.8,55.2,29.71,WSW,248,6.5,6.5,98,0.00,,,0.00,VWS V14.01,2013-07-24 15:30:00,
2013-07-24 08:35:00,55.8,55.2,29.71,SSW,202,5.4,5.4,98,0.00,,,0.00,VWS V14.01,2013-07-24 15:35:00,
2013-07-24 08:40:00,55.8,55.2,29.71,WNW,292,7.4,7.4,98,0.00,,,0.00,VWS V14.01,2013-07-24 15:40:00,
2013-07-24 08:45:00,55.8,55.2,29.71,West,270,5.6,5.6,98,0.00,,,0.00,VWS V14.01,2013-07-24 15:45:00,
2013-07-24 08:50:00,56.1,55.6,29.71,West,270,5.6,5.6,98,0.00,,,0.00,VWS V14.01,2013-07-24 15:50:00,
2013-07-24 08:55:00,56.5,55.9,29.71,NW,315,2.7,2.7,98,0.00,,,0.00,VWS V14.01,2013-07-24 15:55:00,
2013-07-24 09:00:00,56.5,55.9,29.71,WNW,292,5.6,5.6,98,0.00,,,0.00,VWS V14.01,2013-07-24 16:00:00,
2013-07-24 09:05:00,56.5,55.9,29.71,WNW,292,5.6,5.6,98,0.00,,,0.00,VWS V14.01,2013-07-24 16:05:00,
2013-07-24 09:10:00,56.5,55.9,29.71,NNW,338,4.3,4.3,98,0.00,,,0.00,VWS V14.01,2013-07-24 16:10:00,
2013-07-24 09:15:00,56.8,56.3,29.71,NW,315,6.0,6.0,98,0.00,,,0.00,VWS V14.01,2013-07-24 16:15:00,
2013-07-24 09:20:00,57.2,56.6,29.71,NW,315,6.0,6.0,98,0.00,,,0.00,VWS V14.01,2013-07-24 16:20:00,
2013-07-24 09:25:00,57.2,56.6,29.71,WSW,248,4.9,4.9,98,0.00,,,0.00,VWS V14.01,2013-07-24 16:25:00,
2013-07-24 09:30:00,57.6,57.0,29.71,WSW,248,4.7,4.7,98,0.00,,,0.00,VWS V14.01,2013-07-24 16:30:00,
2013-07-24 09:35:00,57.6,57.0,29.71,NNW,338,8.5,8.5,98,0.00,,,0.00,VWS V14.01,2013-07-24 16:35:00,
2013-07-24 09:40:00,57.6,57.0,29.71,NW,315,9.4,9.4,98,0.00,,,0.00,VWS V14.01,2013-07-24 16:40:00,
2013-07-24 09:45:00,57.6,57.0,29.71,West,270,8.1,8.1,98,0.00,,,0.00,VWS V14.01,2013-07-24 16:45:00,
2013-07-24 09:50:00,57.9,57.4,29.71,WSW,248,11.2,11.2,98,0.00,,,0.00,VWS V14.01,2013-07-24 16:50:00,
2013-07-24 09:55:00,58.3,57.7,29.71,West,270,9.6,9.6,98,0.00,,,0.00,VWS V14.01,2013-07-24 16:55:00,
2013-07-24 10:00:00,58.6,58.1,29.71,West,270,5.4,5.4,98,0.00,,,0.00,VWS V14.01,2013-07-24 17:00:00,
2013-07-24 10:05:00,58.8,58.3,29.71,NW,315,7.2,7.2,98,0.00,,,0.00,VWS V14.01,2013-07-24 17:05:00,
2013-07-24 10:10:00,59.2,58.6,29.71,WSW,248,10.1,10.1,98,0.00,,,0.00,VWS V14.01,2013-07-24 17:10:00,
2013-07-24 10:15:00,59.2,58.6,29.71,WNW,292,13.0,13.0,98,0.00,,,0.00,VWS V14.01,2013-07-24 17:15:00,
2013-07-24 10:20:00,59.4,58.8,29.71,NW,315,11.0,11.0,98,0.00,,,0.00,VWS V14.01,2013-07-24 17:20:00,
2013-07-24 10:25:00,59.5,59.0,29.71,WSW,248,5.4,5.4,98,0.00,,,0.00,VWS V14.01,2013-07-24 17:25:00,
2013-07-24 10:30:00,59.7,59.2,29.71,WNW,292,3.8,3.8,98,0.00,,,0.00,VWS V14.01,2013-07-24 17:30:00,
2013-07-24 10:35:00,59.9,59.3,29.71,NW,315,6.0,6.0,98,0.00,,,0.00,VWS V14.01,2013-07-24 17:35:00,
2013-07-24 10:40:00,60.3,59.7,29.71,West,270,6.3,6.3,98,0.00,,,0.00,VWS V14.01,2013-07-24 17:40:00,
2013-07-24 10:45:00,60.1,59.5,29.71,West,270,9.4,9.4,98,0.00,,,0.00,VWS V14.01,2013-07-24 17:45:00,
2013-07-24 10:50:00,60.1,59.5,29.71,NW,315,4.9,4.9,98,0.00,,,0.00,VWS V14.01,2013-07-24 17:50:00,
2013-07-24 10:55:00,59.9,59.3,29.68,West,270,6.5,6.5,98,0.00,,,0.00,VWS V14.01,2013-07-24 17:55:00,
2013-07-24 11:00:00,59.9,59.3,29.68,NNW,338,11.9,11.9,98,0.00,,,0.00,VWS V14.01,2013-07-24 18:00:00,
2013-07-24 11:05:00,59.9,58.5,29.68,WSW,248,12.5,12.5,95,0.00,,,0.00,VWS V14.01,2013-07-24 18:05:00,
2013-07-24 11:10:00,59.9,58.2,29.68,WSW,248,13.0,13.0,94,0.00,,,0.00,VWS V14.01,2013-07-24 18:10:00,
2013-07-24 11:15:00,60.1,57.8,29.68,WSW,248,6.5,6.5,92,0.00,,,0.00,VWS V14.01,2013-07-24 18:15:00,
2013-07-24 11:20:00,60.6,57.4,29.68,West,270,5.8,5.8,89,0.00,,,0.00,VWS V14.01,2013-07-24 18:20:00,
2013-07-24 11:25:00,61.3,57.4,29.68,WSW,248,11.9,11.9,87,0.00,,,0.00,VWS V14.01,2013-07-24 18:25:00,
2013-07-24 11:30:00,61.3,57.4,29.68,WSW,248,9.8,9.8,87,0.00,,,0.00,VWS V14.01,2013-07-24 18:30:00,
2013-07-24 11:35:00,60.6,55.8,29.68,NW,315,16.6,16.6,84,0.00,,,0.00,VWS V14.01,2013-07-24 18:35:00,
2013-07-24 11:40:00,60.8,55.9,29.68,NW,315,5.6,5.6,84,0.00,,,0.00,VWS V14.01,2013-07-24 18:40:00,
2013-07-24 11:45:00,61.0,56.1,29.68,WNW,292,13.0,13.0,84,0.00,,,0.00,VWS V14.01,2013-07-24 18:45:00,
2013-07-24 11:50:00,60.8,55.6,29.68,WSW,248,8.1,8.1,83,0.00,,,0.00,VWS V14.01,2013-07-24 18:50:00,
2013-07-24 11:55:00,61.7,56.5,29.68,WSW,248,6.0,6.0,83,0.00,,,0.00,VWS V14.01,2013-07-24 18:55:00,
2013-07-24 12:00:00,62.1,56.2,29.68,WSW,248,12.5,12.5,81,0.00,,,0.00,VWS V14.01,2013-07-24 19:00:00,
2013-07-24 12:05:00,61.7,55.8,29.68,WNW,292,4.0,4.0,81,0.00,,,0.00,VWS V14.01,2013-07-24 19:05:00,
2013-07-24 12:10:00,61.5,55.3,29.68,West,270,12.3,12.3,80,0.00,,,0.00,VWS V14.01,2013-07-24 19:10:00,
2013-07-24 12:15:00,61.5,55.6,29.68,WNW,292,7.6,7.6,81,0.00,,,0.00,VWS V14.01,2013-07-24 19:15:00,
2013-07-24 12:20:00,61.7,55.5,29.68,WNW,292,13.0,13.0,80,0.00,,,0.00,VWS V14.01,2013-07-24 19:20:00,
2013-07-24 12:25:00,61.9,55.7,29.68,WNW,292,11.9,11.9,80,0.00,,,0.00,VWS V14.01,2013-07-24 19:25:00,
2013-07-24 12:30:00,62.1,55.5,29.68,WSW,248,12.1,12.1,79,0.00,,,0.00,VWS V14.01,2013-07-24 19:30:00,
2013-07-24 12:35:00,62.1,55.1,29.68,NW,315,13.2,13.2,78,0.00,,,0.00,VWS V14.01,2013-07-24 19:35:00,
2013-07-24 12:40:00,62.4,55.1,29.68,West,270,17.0,17.0,77,0.00,,,0.00,VWS V14.01,2013-07-24 19:40:00,
2013-07-24 12:45:00,62.2,55.0,29.68,WSW,248,15.4,15.4,77,0.00,,,0.00,VWS V14.01,2013-07-24 19:45:00,
2013-07-24 12:50:00,61.9,55.0,29.68,West,270,19.7,19.7,78,0.00,,,0.00,VWS V14.01,2013-07-24 19:50:00,
2013-07-24 12:55:00,62.1,55.1,29.68,WNW,292,14.5,14.5,78,0.00,,,0.00,VWS V14.01,2013-07-24 19:55:00,
2013-07-24 13:00:00,62.1,55.1,29.68,WNW,292,14.5,14.5,78,0.00,,,0.00,VWS V14.01,2013-07-24 20:00:00,
2013-07-24 13:05:00,62.1,55.1,29.68,WNW,292,14.5,14.5,78,0.00,,,0.00,VWS V14.01,2013-07-24 20:05:00,
2013-07-24 13:10:00,62.1,55.1,29.68,West,270,13.2,13.2,78,0.00,,,0.00,VWS V14.01,2013-07-24 20:10:00,
2013-07-24 13:15:00,63.0,54.9,29.68,West,270,13.2,13.2,75,0.00,,,0.00,VWS V14.01,2013-07-24 20:15:00,
2013-07-24 13:20:00,62.4,54.8,29.68,West,270,14.3,14.3,76,0.00,,,0.00,VWS V14.01,2013-07-24 20:20:00,
2013-07-24 13:25:00,62.4,54.8,29.68,West,270,14.3,14.3,76,0.00,,,0.00,VWS V14.01,2013-07-24 20:25:00,
2013-07-24 13:30:00,62.1,54.4,29.68,West,270,14.3,14.3,76,0.00,,,0.00,VWS V14.01,2013-07-24 20:30:00,
2013-07-24 13:35:00,62.1,54.4,29.68,West,270,17.0,17.0,76,0.00,,,0.00,VWS V14.01,2013-07-24 20:35:00,
2013-07-24 13:40:00,62.6,54.9,29.68,WSW,248,19.7,19.7,76,0.00,,,0.00,VWS V14.01,2013-07-24 20:40:00,
2013-07-24 13:45:00,62.6,54.9,29.68,WSW,248,19.2,19.2,76,0.00,,,0.00,VWS V14.01,2013-07-24 20:45:00,
2013-07-24 13:50:00,62.6,54.9,29.68,WSW,248,17.5,17.5,76,0.00,,,0.00,VWS V14.01,2013-07-24 20:50:00,
2013-07-24 13:55:00,62.1,54.8,29.68,WNW,292,17.2,17.2,77,0.00,,,0.00,VWS V14.01,2013-07-24 20:55:00,
2013-07-24 14:00:00,61.9,55.0,29.68,SW,225,13.4,13.4,78,0.00,,,0.00,VWS V14.01,2013-07-24 21:00:00,
2013-07-24 14:05:00,61.9,54.6,29.68,WSW,248,17.2,17.2,77,0.00,,,0.00,VWS V14.01,2013-07-24 21:05:00,
2013-07-24 14:10:00,62.1,54.8,29.68,West,270,11.0,11.0,77,0.00,,,0.00,VWS V14.01,2013-07-24 21:10:00,
2013-07-24 14:15:00,62.1,54.8,29.68,WNW,292,12.8,12.8,77,0.00,,,0.00,VWS V14.01,2013-07-24 21:15:00,
2013-07-24 14:20:00,62.2,55.0,29.68,WSW,248,16.1,16.1,77,0.00,,,0.00,VWS V14.01,2013-07-24 21:20:00,
2013-07-24 14:25:00,62.6,54.9,29.68,WNW,292,12.5,12.5,76,0.00,,,0.00,VWS V14.01,2013-07-24 21:25:00,
2013-07-24 14:30:00,62.6,54.6,29.68,West,270,15.9,15.9,75,0.00,,,0.00,VWS V14.01,2013-07-24 21:30:00,
2013-07-24 14:35:00,62.4,54.8,29.68,WSW,248,17.2,17.2,76,0.00,,,0.00,VWS V14.01,2013-07-24 21:35:00,
2013-07-24 14:40:00,62.4,54.8,29.65,WNW,292,14.5,14.5,76,0.00,,,0.00,VWS V14.01,2013-07-24 21:40:00,
2013-07-24 14:45:00,62.4,54.8,29.65,SW,225,17.9,17.9,76,0.00,,,0.00,VWS V14.01,2013-07-24 21:45:00,
2013-07-24 14:50:00,62.8,54.8,29.65,South,180,14.3,14.3,75,0.00,,,0.00,VWS V14.01,2013-07-24 21:50:00,
2013-07-24 14:55:00,62.8,54.4,29.65,WSW,248,15.2,15.2,74,0.00,,,0.00,VWS V14.01,2013-07-24 21:55:00,
2013-07-24 15:00:00,62.8,54.4,29.65,WSW,248,13.4,13.4,74,0.00,,,0.00,VWS V14.01,2013-07-24 22:00:00,
2013-07-24 15:05:00,62.8,54.4,29.65,West,270,18.1,18.1,74,0.00,,,0.00,VWS V14.01,2013-07-24 22:05:00,
2013-07-24 15:10:00,62.8,54.4,29.65,West,270,18.1,18.1,74,0.00,,,0.00,VWS V14.01,2013-07-24 22:10:00,
2013-07-24 15:15:00,62.8,54.4,29.65,West,270,18.1,18.1,74,0.00,,,0.00,VWS V14.01,2013-07-24 22:15:00,
2013-07-24 15:20:00,63.3,54.5,29.65,WSW,248,17.5,17.5,73,0.00,,,0.00,VWS V14.01,2013-07-24 22:20:00,
2013-07-24 15:25:00,62.8,54.4,29.65,West,270,17.7,17.7,74,0.00,,,0.00,VWS V14.01,2013-07-24 22:25:00,
2013-07-24 15:30:00,62.8,54.4,29.65,WSW,248,21.0,21.0,74,0.00,,,0.00,VWS V14.01,2013-07-24 22:30:00,
2013-07-24 15:35:00,62.6,54.2,29.65,SW,225,17.5,17.5,74,0.00,,,0.00,VWS V14.01,2013-07-24 22:35:00,
2013-07-24 15:40:00,62.6,54.2,29.62,West,270,20.8,20.8,74,0.00,,,0.00,VWS V14.01,2013-07-24 22:40:00,
2013-07-24 15:45:00,62.6,54.2,29.62,West,270,20.8,20.8,74,0.00,,,0.00,VWS V14.01,2013-07-24 22:45:00,
2013-07-24 15:50:00,62.6,54.2,29.62,West,270,20.8,20.8,74,0.00,,,0.00,VWS V14.01,2013-07-24 22:50:00,
2013-07-24 15:55:00,62.1,54.8,29.62,West,270,20.8,20.8,77,0.00,,,0.00,VWS V14.01,2013-07-24 22:55:00,
2013-07-24 16:00:00,62.1,54.8,29.62,WSW,248,22.4,22.4,77,0.00,,,0.00,VWS V14.01,2013-07-24 23:00:00,
2013-07-24 16:05:00,62.2,55.0,29.62,SW,225,15.2,15.2,77,0.00,,,0.00,VWS V14.01,2013-07-24 23:05:00,
2013-07-24 16:10:00,62.2,55.0,29.62,WSW,248,21.9,21.9,77,0.00,,,0.00,VWS V14.01,2013-07-24 23:10:00,
2013-07-24 16:15:00,62.6,55.3,29.62,WSW,248,16.3,16.3,77,0.00,,,0.00,VWS V14.01,2013-07-24 23:15:00,
2013-07-24 16:20:00,62.6,55.3,29.62,WSW,248,16.3,16.3,77,0.00,,,0.00,VWS V14.01,2013-07-24 23:20:00,
2013-07-24 16:25:00,62.6,55.3,29.62,WSW,248,16.3,16.3,77,0.00,,,0.00,VWS V14.01,2013-07-24 23:25:00,
2013-07-24 16:30:00,62.6,55.3,29.62,NW,315,21.3,21.3,77,0.00,,,0.00,VWS V14.01,2013-07-24 23:30:00,
2013-07-24 16:35:00,62.6,55.3,29.62,WSW,248,17.7,17.7,77,0.00,,,0.00,VWS V14.01,2013-07-24 23:35:00,
2013-07-24 16:40:00,62.1,55.1,29.62,WNW,292,13.6,13.6,78,0.00,,,0.00,VWS V14.01,2013-07-24 23:40:00,
2013-07-24 16:45:00,62.1,55.1,29.62,WNW,292,13.6,13.6,78,0.00,,,0.00,VWS V14.01,2013-07-24 23:45:00,
2013-07-24 16:50:00,62.1,55.1,29.62,WNW,292,13.6,13.6,78,0.00,,,0.00,VWS V14.01,2013-07-24 23:50:00,
2013-07-24 16:55:00,62.1,55.1,29.62,WSW,248,25.5,25.5,78,0.00,,,0.00,VWS V14.01,2013-07-24 23:55:00,
2013-07-24 17:00:00,61.3,55.1,29.62,WSW,248,17.5,17.5,80,0.00,,,0.00,VWS V14.01,2013-07-25 00:00:00,
2013-07-24 17:05:00,61.2,54.6,29.62,West,270,17.7,17.7,79,0.00,,,0.00,VWS V14.01,2013-07-25 00:05:00,
2013-07-24 17:10:00,61.0,54.8,29.62,West,270,24.4,24.4,80,0.00,,,0.00,VWS V14.01,2013-07-25 00:10:00,
2013-07-24 17:15:00,61.0,54.8,29.62,WSW,248,22.4,22.4,80,0.00,,,0.00,VWS V14.01,2013-07-25 00:15:00,
2013-07-24 17:20:00,61.2,54.6,29.62,West,270,24.2,24.2,79,0.00,,,0.00,VWS V14.01,2013-07-25 00:20:00,
2013-07-24 17:25:00,61.5,55.0,29.62,West,270,17.5,17.5,79,0.00,,,0.00,VWS V14.01,2013-07-25 00:25:00,
2013-07-24 17:30:00,61.5,54.6,29.62,West,270,22.6,22.6,78,0.00,,,0.00,VWS V14.01,2013-07-25 00:30:00,
2013-07-24 17:35:00,61.9,55.0,29.62,WSW,248,12.8,12.8,78,0.00,,,0.00,VWS V14.01,2013-07-25 00:35:00,
2013-07-24 17:40:00,61.7,54.4,29.59,West,270,26.9,26.9,77,0.00,,,0.00,VWS V14.01,2013-07-25 00:40:00,
2013-07-24 17:45:00,62.1,54.8,29.59,SSW,202,22.2,22.2,77,0.00,,,0.00,VWS V14.01,2013-07-25 00:45:00,
2013-07-24 17:50:00,61.5,54.6,29.59,WSW,248,13.2,13.2,78,0.00,,,0.00,VWS V14.01,2013-07-25 00:50:00,
2013-07-24 17:55:00,61.3,54.8,29.59,West,270,17.5,17.5,79,0.00,,,0.00,VWS V14.01,2013-07-25 00:55:00,
2013-07-24 18:00:00,61.2,54.6,29.59,WSW,248,20.4,20.4,79,0.00,,,0.00,VWS V14.01,2013-07-25 01:00:00,
2013-07-24 18:05:00,61.0,54.8,29.59,WSW,248,15.4,15.4,80,0.00,,,0.00,VWS V14.01,2013-07-25 01:05:00,
2013-07-24 18:10:00,60.4,54.6,29.59,SW,225,19.0,19.0,81,0.00,,,0.00,VWS V14.01,2013-07-25 01:10:00,
2013-07-24 18:15:00,60.1,54.9,29.59,SW,225,22.8,22.8,83,0.00,,,0.00,VWS V14.01,2013-07-25 01:15:00,
2013-07-24 18:20:00,59.7,54.9,29.59,WSW,248,23.5,23.5,84,0.00,,,0.00,VWS V14.01,2013-07-25 01:20:00,
2013-07-24 18:25:00,59.7,55.2,29.59,SW,225,18.6,18.6,85,0.00,,,0.00,VWS V14.01,2013-07-25 01:25:00,
2013-07-24 18:30:00,59.7,55.2,29.59,SW,225,18.6,18.6,85,0.00,,,0.00,VWS V14.01,2013-07-25 01:30:00,
2013-07-24 18:35:00,59.0,55.1,29.59,WSW,248,18.6,18.6,87,0.00,,,0.00,VWS V14.01,2013-07-25 01:35:00,
2013-07-24 18:40:00,58.5,54.9,29.59,WSW,248,20.4,20.4,88,0.00,,,0.00,VWS V14.01,2013-07-25 01:40:00,
2013-07-24 18:45:00,58.6,55.4,29.59,WSW,248,14.5,14.5,89,0.00,,,0.00,VWS V14.01,2013-07-25 01:45:00,
2013-07-24 18:50:00,58.3,55.1,29.59,WSW,248,23.9,23.9,89,0.00,,,0.00,VWS V14.01,2013-07-25 01:50:00,
2013-07-24 18:55:00,58.1,55.5,29.59,WSW,248,11.0,11.0,91,0.00,,,0.00,VWS V14.01,2013-07-25 01:55:00,
2013-07-24 19:00:00,58.1,55.5,29.59,WSW,248,15.2,15.2,91,0.00,,,0.00,VWS V14.01,2013-07-25 02:00:00,
2013-07-24 19:05:00,57.4,55.1,29.59,West,270,13.0,13.0,92,0.00,,,0.00,VWS V14.01,2013-07-25 02:05:00,
2013-07-24 19:10:00,57.0,55.0,29.59,WSW,248,17.2,17.2,93,0.00,,,0.00,VWS V14.01,2013-07-25 02:10:00,
2013-07-24 19:15:00,56.8,55.1,29.59,West,270,21.3,21.3,94,0.00,,,0.00,VWS V14.01,2013-07-25 02:15:00,
2013-07-24 19:20:00,56.7,55.2,29.59,NW,315,10.5,10.5,95,0.00,,,0.00,VWS V14.01,2013-07-25 02:20:00,
2013-07-24 19:25:00,56.3,54.9,29.59,WNW,292,15.4,15.4,95,0.00,,,0.00,VWS V14.01,2013-07-25 02:25:00,
2013-07-24 19:30:00,56.3,55.2,29.59,West,270,10.1,10.1,96,0.00,,,0.00,VWS V14.01,2013-07-25 02:30:00,
2013-07-24 19:35:00,56.3,55.2,29.59,WSW,248,7.6,7.6,96,0.00,,,0.00,VWS V14.01,2013-07-25 02:35:00,
2013-07-24 19:40:00,56.3,55.5,29.59,WNW,292,13.9,13.9,97,0.00,,,0.00,VWS V14.01,2013-07-25 02:40:00,
2013-07-24 19:45:00,56.3,55.5,29.59,WSW,248,10.7,10.7,97,0.00,,,0.00,VWS V14.01,2013-07-25 02:45:00,
2013-07-24 19:50:00,56.1,55.3,29.59,WSW,248,10.3,10.3,97,0.00,,,0.00,VWS V14.01,2013-07-25 02:50:00,
2013-07-24 19:55:00,55.9,55.1,29.62,SSW,202,6.3,6.3,97,0.00,,,0.00,VWS V14.01,2013-07-25 02:55:00,
2013-07-24 20:00:00,55.9,55.4,29.62,West,270,16.6,16.6,98,0.00,,,0.00,VWS V14.01,2013-07-25 03:00:00,
2013-07-24 20:05:00,55.9,55.4,29.62,WNW,292,11.4,11.4,98,0.00,,,0.00,VWS V14.01,2013-07-25 03:05:00,
2013-07-24 20:10:00,55.8,55.2,29.62,WSW,248,17.0,17.0,98,0.00,,,0.00,VWS V14.01,2013-07-25 03:10:00,
2013-07-24 20:15:00,55.8,55.2,29.62,WNW,292,13.0,13.0,98,0.00,,,0.00,VWS V14.01,2013-07-25 03:15:00,
2013-07-24 20:20:00,55.8,55.2,29.62,West,270,10.7,10.7,98,0.00,,,0.00,VWS V14.01,2013-07-25 03:20:00,
2013-07-24 20:25:00,55.8,55.2,29.62,WSW,248,16.8,16.8,98,0.00,,,0.00,VWS V14.01,2013-07-25 03:25:00,
2013-07-24 20:30:00,55.4,54.8,29.62,WNW,292,8.1,8.1,98,0.00,,,0.00,VWS V14.01,2013-07-25 03:30:00,
2013-07-24 20:35:00,55.2,54.7,29.62,WNW,292,8.7,8.7,98,0.00,,,0.00,VWS V14.01,2013-07-25 03:35:00,
2013-07-24 20:40:00,55.2,54.7,29.62,SW,225,19.5,19.5,98,0.00,,,0.00,VWS V14.01,2013-07-25 03:40:00,
2013-07-24 20:45:00,55.2,54.7,29.62,WSW,248,7.8,7.8,98,0.00,,,0.00,VWS V14.01,2013-07-25 03:45:00,
2013-07-24 20:50:00,55.0,54.5,29.62,WSW,248,7.8,7.8,98,0.00,,,0.00,VWS V14.01,2013-07-25 03:50:00,
2013-07-24 20:55:00,55.0,54.5,29.62,West,270,10.7,10.7,98,0.00,,,0.00,VWS V14.01,2013-07-25 03:55:00,
2013-07-24 21:01:00,55.0,54.5,29.62,WSW,248,5.4,5.4,98,0.00,,,0.00,VWS V14.01,2013-07-25 04:01:00,
2013-07-24 21:06:00,55.0,54.5,29.62,South,180,12.1,12.1,98,0.00,,,0.00,VWS V14.01,2013-07-25 04:06:00,
2013-07-24 21:11:00,55.0,54.5,29.65,NNW,338,7.2,7.2,98,0.00,,,0.00,VWS V14.01,2013-07-25 04:11:00,
2013-07-24 21:16:00,55.0,54.5,29.65,WSW,248,7.6,7.6,98,0.00,,,0.00,VWS V14.01,2013-07-25 04:16:00,
2013-07-24 21:21:00,55.0,54.5,29.65,West,270,6.5,6.5,98,0.00,,,0.00,VWS V14.01,2013-07-25 04:21:00,
2013-07-24 21:26:00,54.9,54.3,29.62,WNW,292,9.6,9.6,98,0.00,,,0.00,VWS V14.01,2013-07-25 04:26:00,
2013-07-24 21:31:00,54.9,54.3,29.62,WNW,292,11.9,11.9,98,0.00,,,0.00,VWS V14.01,2013-07-25 04:31:00,
2013-07-24 21:36:00,54.9,54.3,29.62,WSW,248,14.8,14.8,98,0.00,,,0.00,VWS V14.01,2013-07-25 04:36:00,
2013-07-24 21:41:00,54.9,54.3,29.65,WSW,248,10.5,10.5,98,0.00,,,0.00,VWS V14.01,2013-07-25 04:41:00,
2013-07-24 21:46:00,54.9,54.3,29.65,West,270,17.0,17.0,98,0.00,,,0.00,VWS V14.01,2013-07-25 04:46:00,
2013-07-24 21:51:00,54.9,54.3,29.65,SW,225,13.4,13.4,98,0.00,,,0.00,VWS V14.01,2013-07-25 04:51:00,
2013-07-24 21:56:00,54.9,54.3,29.65,WSW,248,10.5,10.5,98,0.00,,,0.00,VWS V14.01,2013-07-25 04:56:00,
2013-07-24 22:02:00,54.7,54.1,29.65,WSW,248,16.1,16.1,98,0.00,,,0.00,VWS V14.01,2013-07-25 05:02:00,
2013-07-24 22:07:00,54.7,54.1,29.65,WSW,248,13.0,13.0,98,0.00,,,0.00,VWS V14.01,2013-07-25 05:07:00,
2013-07-24 22:12:00,54.5,54.0,29.65,West,270,17.5,17.5,98,0.00,,,0.00,VWS V14.01,2013-07-25 05:12:00,
2013-07-24 22:17:00,54.5,54.0,29.65,WNW,292,12.1,12.1,98,0.00,,,0.00,VWS V14.01,2013-07-25 05:17:00,
2013-07-24 22:22:00,54.5,54.0,29.65,WSW,248,14.8,14.8,98,0.00,,,0.00,VWS V14.01,2013-07-25 05:22:00,
2013-07-24 22:26:00,54.5,54.0,29.65,WSW,248,11.2,11.2,98,0.00,,,0.00,VWS V14.01,2013-07-25 05:26:00,
2013-07-24 22:32:00,54.7,54.1,29.65,WSW,248,12.8,12.8,98,0.00,,,0.00,VWS V14.01,2013-07-25 05:32:00,
2013-07-24 22:36:00,54.5,54.0,29.65,WSW,248,14.5,14.5,98,0.00,,,0.00,VWS V14.01,2013-07-25 05:36:00,
2013-07-24 22:41:00,54.5,54.0,29.65,WSW,248,10.1,10.1,98,0.00,,,0.00,VWS V14.01,2013-07-25 05:41:00,
2013-07-24 22:46:00,54.3,53.8,29.65,West,270,17.0,17.0,98,0.00,,,0.00,VWS V14.01,2013-07-25 05:46:00,
2013-07-24 22:52:00,54.3,53.8,29.65,WSW,248,14.3,14.3,98,0.00,,,0.00,VWS V14.01,2013-07-25 05:52:00,
2013-07-24 22:57:00,54.0,53.4,29.62,WSW,248,10.3,10.3,98,0.00,,,0.00,VWS V14.01,2013-07-25 05:57:00,
2013-07-24 23:02:00,54.1,53.6,29.62,WNW,292,6.5,6.5,98,0.00,,,0.00,VWS V14.01,2013-07-25 06:02:00,
2013-07-24 23:07:00,54.0,53.4,29.62,West,270,10.5,10.5,98,0.00,,,0.00,VWS V14.01,2013-07-25 06:07:00,
2013-07-24 23:12:00,54.0,53.4,29.65,WNW,292,12.8,12.8,98,0.00,,,0.00,VWS V14.01,2013-07-25 06:12:00,
2013-07-24 23:17:00,54.0,53.4,29.65,West,270,10.7,10.7,98,0.00,,,0.00,VWS V14.01,2013-07-25 06:17:00,
2013-07-24 23:22:00,54.0,53.4,29.65,WNW,292,7.6,7.6,98,0.00,,,0.00,VWS V14.01,2013-07-25 06:22:00,
2013-07-24 23:27:00,53.8,53.2,29.65,West,270,8.7,8.7,98,0.00,,,0.00,VWS V14.01,2013-07-25 06:27:00,
2013-07-24 23:32:00,53.8,53.2,29.65,WNW,292,2.9,2.9,98,0.00,,,0.00,VWS V14.01,2013-07-25 06:32:00,
2013-07-24 23:37:00,53.8,53.2,29.65,SW,225,7.6,7.6,98,0.00,,,0.00,VWS V14.01,2013-07-25 06:37:00,
2013-07-24 23:42:00,53.8,53.2,29.68,WNW,292,4.0,4.0,98,0.00,,,0.00,VWS V14.01,2013-07-25 06:42:00,
2013-07-24 23:47:00,53.8,53.2,29.68,West,270,4.3,4.3,98,0.00,,,0.00,VWS V14.01,2013-07-25 06:47:00,
2013-07-24 23:52:00,53.8,53.2,29.68,NW,315,3.1,3.1,98,0.00,,,0.00,VWS V14.01,2013-07-25 06:52:00,
2013-07-24 23:57:00,53.8,53.2,29.65,SSW,202,4.7,4.7,98,0.00,,,0.00,VWS V14.01,2013-07-25 06:57:00,